METAR Data
IDs: Format: Raw Decoded Include TAF

Data at: 0337 UTC 18 Jun 2019

PAHL 180256Z AUTO 04010G18KT 10SM CLR 21/09 A2963 RMK AO2 SLP042 60000 T02110089 56005
PAHL 180156Z AUTO 06009G15KT 10SM FEW048 20/08 A2963 RMK AO2 SLP043 T02000083
PAHL 180056Z AUTO 04011G17KT 10SM CLR 19/09 A2963 RMK AO2 RAB07E19 SLP043 P0000 T01940089
PAHL 172356Z AUTO 06006KT 10SM FEW042 20/08 A2965 RMK AO2 SLP047 60001 T02000083 10200 20156 50001
PAHL 172256Z AUTO 12009G14KT 10SM CLR 19/09 A2965 RMK AO2 SLP048 T01890089
PAHL 172156Z AUTO 11009KT 10SM BKN090 16/08 A2965 RMK AO2 RAB00E15 SLP049 P0000 T01610083
PAHL 172056Z AUTO 10008G16KT 10SM BKN090 BKN110 17/09 A2964 RMK AO2 SLP045 60001 T01670094 51010
PAHL 171856Z AUTO 05007KT 10SM BKN085 16/09 A2962 RMK AO2 RAE17 SLP039 P0001 T01610089
PAHL 171756Z AUTO 09008G17KT 10SM RA FEW090 SCT110 16/07 A2961 RMK AO2 RAB52 SLP034 P0000 60000 T01610072 10178 20128 58002
PAHL 171656Z AUTO 36005KT 10SM FEW090 14/07 A2961 RMK AO2 SLP036 T01440072
PAHL 171556Z AUTO 30003KT 10SM CLR 13/06 A2962 RMK AO2 SLP036 T01280061
PAHL 171456Z AUTO 27003KT 10SM CLR 13/06 A2962 RMK AO2 SLP037 T01280061 58014
PAHL 171356Z AUTO VRB03KT 10SM CLR 13/07 A2964 RMK AO2 SLP046 T01330067
PAHL 171256Z AUTO 29006KT 10SM CLR 13/07 A2964 RMK AO2 SLP045 T01280072
PAHL 171156Z AUTO 30004KT 10SM CLR 13/08 A2966 RMK AO2 SLP051 T01330083 10239 20133 58008
PAHL 171056Z AUTO 29005KT 10SM CLR 15/08 A2966 RMK AO2 SLP053 T01500083
PAHL 170956Z AUTO 32004KT 10SM CLR 17/08 A2968 RMK AO2 SLP058 T01670083
PAHL 170856Z AUTO 30005KT 10SM CLR 18/08 A2968 RMK AO2 SLP058 T01830078 402500122 56002
PAHL 170756Z AUTO 32004KT 10SM CLR 21/08 A2968 RMK AO2 SLP059 T02110083
PAHL 170656Z AUTO 01005KT 10SM CLR 23/08 A2968 RMK AO2 SLP059 T02280078
PAHL 170556Z AUTO 01006KT 10SM CLR 24/07 A2969 RMK AO2 SLP060 T02390072 10250 20233 56010
PAHL 170456Z AUTO 35004KT 10SM CLR 24/05 A2969 RMK AO2 SLP061 T02440050
PAHL 170356Z AUTO 34005KT 10SM CLR 24/05 A2970 RMK AO2 SLP066 T02440050
PAHL 170256Z AUTO 31006KT 10SM CLR 24/05 A2972 RMK AO2 SLP070 T02440050 56017
PAHL 170156Z AUTO VRB06KT 10SM CLR 24/04 A2973 RMK AO2 SLP075 T02440044
PAHL 162356Z AUTO VRB06KT 10SM CLR 23/04 A2977 RMK AO2 SLP088 T02330039 10239 20178 56015
PAHL 162256Z AUTO 04007KT 10SM CLR 23/04 A2978 RMK AO2 SLP093 T02280039
PAHL 162156Z AUTO 05010G14KT 10SM CLR 23/05 A2980 RMK AO2 SLP097 T02280050
PAHL 162056Z AUTO 06007KT 10SM CLR 22/05 A2981 RMK AO2 SLP102 T02170050 58008
PAHL 161956Z AUTO VRB05KT 10SM CLR 21/04 A2982 RMK AO2 SLP105 T02060044
PAHL 161856Z AUTO 03006KT 10SM CLR 19/06 A2983 RMK AO2 SLP109 T01940056
PAHL 161756Z AUTO 08007KT 10SM CLR 18/06 A2984 RMK AO2 SLP111 T01780061 10183 20122 56003
PAHL 161656Z AUTO 08007KT 10SM CLR 18/07 A2984 RMK AO2 SLP111 T01780067
PAHL 161556Z AUTO 04006KT 10SM CLR 17/08 A2984 RMK AO2 SLP113 T01670083